sensor_id;sensor_type;location;lat;lon;timestamp;P1;durP1;ratioP1;P2;durP2;ratioP2
46593;SDS011;35342;52.378;4.648;2022-12-29T00:02:03;1.30;;;1.17;;
46593;SDS011;35342;52.378;4.648;2022-12-29T00:04:28;1.30;;;1.20;;
46593;SDS011;35342;52.378;4.648;2022-12-29T00:06:54;2.45;;;1.40;;
46593;SDS011;35342;52.378;4.648;2022-12-29T00:09:20;2.05;;;1.85;;
46593;SDS011;35342;52.378;4.648;2022-12-29T00:11:45;4.03;;;1.45;;
46593;SDS011;35342;52.378;4.648;2022-12-29T00:14:11;1.60;;;1.35;;
46593;SDS011;35342;52.378;4.648;2022-12-29T00:16:56;1.65;;;1.30;;
46593;SDS011;35342;52.378;4.648;2022-12-29T00:19:22;3.72;;;1.10;;
46593;SDS011;35342;52.378;4.648;2022-12-29T00:22:08;2.35;;;1.38;;
46593;SDS011;35342;52.378;4.648;2022-12-29T00:24:56;4.03;;;1.25;;
46593;SDS011;35342;52.378;4.648;2022-12-29T00:27:40;3.63;;;1.65;;
46593;SDS011;35342;52.378;4.648;2022-12-29T00:30:24;2.05;;;1.05;;
46593;SDS011;35342;52.378;4.648;2022-12-29T00:33:11;1.65;;;0.93;;
46593;SDS011;35342;52.378;4.648;2022-12-29T00:38:37;1.85;;;1.40;;
46593;SDS011;35342;52.378;4.648;2022-12-29T00:41:22;2.95;;;1.00;;
46593;SDS011;35342;52.378;4.648;2022-12-29T00:44:06;2.53;;;0.77;;
46593;SDS011;35342;52.378;4.648;2022-12-29T00:46:38;2.95;;;1.15;;
46593;SDS011;35342;52.378;4.648;2022-12-29T00:49:05;3.88;;;1.30;;
46593;SDS011;35342;52.378;4.648;2022-12-29T00:51:50;1.85;;;0.82;;
46593;SDS011;35342;52.378;4.648;2022-12-29T00:54:16;4.22;;;1.08;;
46593;SDS011;35342;52.378;4.648;2022-12-29T00:56:42;2.05;;;0.90;;
46593;SDS011;35342;52.378;4.648;2022-12-29T00:59:08;3.35;;;1.08;;
46593;SDS011;35342;52.378;4.648;2022-12-29T01:01:35;2.63;;;1.08;;
46593;SDS011;35342;52.378;4.648;2022-12-29T01:04:01;3.15;;;0.80;;
46593;SDS011;35342;52.378;4.648;2022-12-29T01:06:27;1.83;;;0.85;;
46593;SDS011;35342;52.378;4.648;2022-12-29T01:08:52;1.67;;;0.80;;
46593;SDS011;35342;52.378;4.648;2022-12-29T01:11:37;3.45;;;0.98;;
46593;SDS011;35342;52.378;4.648;2022-12-29T01:14:04;0.98;;;0.70;;
46593;SDS011;35342;52.378;4.648;2022-12-29T01:16:29;0.85;;;0.73;;
46593;SDS011;35342;52.378;4.648;2022-12-29T01:18:55;0.98;;;0.73;;
46593;SDS011;35342;52.378;4.648;2022-12-29T01:21:21;1.13;;;0.65;;
46593;SDS011;35342;52.378;4.648;2022-12-29T01:23:47;0.85;;;0.55;;
46593;SDS011;35342;52.378;4.648;2022-12-29T01:26:13;2.72;;;0.88;;
46593;SDS011;35342;52.378;4.648;2022-12-29T01:28:40;1.38;;;0.85;;
46593;SDS011;35342;52.378;4.648;2022-12-29T01:31:07;1.48;;;0.70;;
46593;SDS011;35342;52.378;4.648;2022-12-29T01:33:33;2.92;;;0.68;;
46593;SDS011;35342;52.378;4.648;2022-12-29T01:36:06;5.30;;;0.82;;
46593;SDS011;35342;52.378;4.648;2022-12-29T01:40:59;1.08;;;0.60;;
46593;SDS011;35342;52.378;4.648;2022-12-29T01:43:42;1.08;;;0.90;;
46593;SDS011;35342;52.378;4.648;2022-12-29T01:46:25;2.22;;;0.82;;
46593;SDS011;35342;52.378;4.648;2022-12-29T01:49:11;2.50;;;0.93;;
46593;SDS011;35342;52.378;4.648;2022-12-29T01:51:41;4.20;;;1.00;;
46593;SDS011;35342;52.378;4.648;2022-12-29T01:54:12;1.52;;;0.77;;
46593;SDS011;35342;52.378;4.648;2022-12-29T01:56:40;5.35;;;1.20;;
46593;SDS011;35342;52.378;4.648;2022-12-29T01:59:08;8.02;;;0.98;;
46593;SDS011;35342;52.378;4.648;2022-12-29T02:01:37;7.30;;;1.10;;
46593;SDS011;35342;52.378;4.648;2022-12-29T02:04:03;7.85;;;1.63;;
46593;SDS011;35342;52.378;4.648;2022-12-29T02:06:31;4.22;;;0.77;;
46593;SDS011;35342;52.378;4.648;2022-12-29T02:08:58;7.15;;;1.30;;
46593;SDS011;35342;52.378;4.648;2022-12-29T02:11:25;6.47;;;0.90;;
46593;SDS011;35342;52.378;4.648;2022-12-29T02:13:51;4.28;;;1.58;;
46593;SDS011;35342;52.378;4.648;2022-12-29T02:16:36;6.93;;;2.35;;
46593;SDS011;35342;52.378;4.648;2022-12-29T02:25:14;5.05;;;1.85;;
46593;SDS011;35342;52.378;4.648;2022-12-29T02:31:16;3.15;;;1.25;;
46593;SDS011;35342;52.378;4.648;2022-12-29T02:41:31;8.48;;;1.35;;
46593;SDS011;35342;52.378;4.648;2022-12-29T02:44:24;11.48;;;1.60;;
46593;SDS011;35342;52.378;4.648;2022-12-29T02:46:56;8.57;;;2.20;;
46593;SDS011;35342;52.378;4.648;2022-12-29T02:49:48;7.63;;;1.33;;
46593;SDS011;35342;52.378;4.648;2022-12-29T02:52:17;8.77;;;1.30;;
46593;SDS011;35342;52.378;4.648;2022-12-29T02:54:48;6.40;;;1.48;;
46593;SDS011;35342;52.378;4.648;2022-12-29T02:57:27;13.27;;;2.50;;
46593;SDS011;35342;52.378;4.648;2022-12-29T03:00:09;16.88;;;2.92;;
46593;SDS011;35342;52.378;4.648;2022-12-29T03:08:04;10.38;;;2.90;;
46593;SDS011;35342;52.378;4.648;2022-12-29T03:11:03;19.92;;;2.40;;
46593;SDS011;35342;52.378;4.648;2022-12-29T03:13:59;10.15;;;2.05;;
46593;SDS011;35342;52.378;4.648;2022-12-29T03:16:59;10.45;;;2.25;;
46593;SDS011;35342;52.378;4.648;2022-12-29T03:19:33;7.40;;;1.77;;
46593;SDS011;35342;52.378;4.648;2022-12-29T03:22:05;12.27;;;3.22;;
46593;SDS011;35342;52.378;4.648;2022-12-29T03:24:52;15.38;;;1.80;;
46593;SDS011;35342;52.378;4.648;2022-12-29T03:27:25;13.55;;;2.70;;
46593;SDS011;35342;52.378;4.648;2022-12-29T03:29:55;15.50;;;3.47;;
46593;SDS011;35342;52.378;4.648;2022-12-29T03:32:24;15.02;;;2.92;;
46593;SDS011;35342;52.378;4.648;2022-12-29T03:34:53;14.15;;;2.40;;
46593;SDS011;35342;52.378;4.648;2022-12-29T03:37:23;23.65;;;3.60;;
46593;SDS011;35342;52.378;4.648;2022-12-29T03:39:51;15.63;;;2.70;;
46593;SDS011;35342;52.378;4.648;2022-12-29T03:42:18;20.27;;;4.93;;
46593;SDS011;35342;52.378;4.648;2022-12-29T03:44:45;13.02;;;2.88;;
46593;SDS011;35342;52.378;4.648;2022-12-29T03:47:11;17.63;;;3.03;;
46593;SDS011;35342;52.378;4.648;2022-12-29T03:49:38;16.73;;;2.88;;
46593;SDS011;35342;52.378;4.648;2022-12-29T03:52:04;11.50;;;3.08;;
46593;SDS011;35342;52.378;4.648;2022-12-29T03:54:30;9.30;;;1.85;;
46593;SDS011;35342;52.378;4.648;2022-12-29T03:56:56;19.23;;;3.50;;
46593;SDS011;35342;52.378;4.648;2022-12-29T03:59:22;9.70;;;2.30;;
46593;SDS011;35342;52.378;4.648;2022-12-29T04:01:47;11.05;;;2.22;;
46593;SDS011;35342;52.378;4.648;2022-12-29T04:04:13;11.40;;;3.20;;
46593;SDS011;35342;52.378;4.648;2022-12-29T04:06:39;18.23;;;2.85;;
46593;SDS011;35342;52.378;4.648;2022-12-29T04:09:05;11.15;;;2.92;;
46593;SDS011;35342;52.378;4.648;2022-12-29T04:11:30;9.70;;;2.35;;
46593;SDS011;35342;52.378;4.648;2022-12-29T04:13:56;13.27;;;2.58;;
46593;SDS011;35342;52.378;4.648;2022-12-29T04:16:21;12.60;;;2.08;;
46593;SDS011;35342;52.378;4.648;2022-12-29T04:18:47;17.08;;;2.83;;
46593;SDS011;35342;52.378;4.648;2022-12-29T04:21:13;9.13;;;2.00;;
46593;SDS011;35342;52.378;4.648;2022-12-29T04:23:38;7.47;;;1.73;;
46593;SDS011;35342;52.378;4.648;2022-12-29T04:26:05;13.73;;;2.22;;
46593;SDS011;35342;52.378;4.648;2022-12-29T04:28:32;10.77;;;1.67;;
46593;SDS011;35342;52.378;4.648;2022-12-29T04:30:58;11.63;;;2.30;;
46593;SDS011;35342;52.378;4.648;2022-12-29T04:33:24;14.70;;;4.32;;
46593;SDS011;35342;52.378;4.648;2022-12-29T04:35:50;20.42;;;4.07;;
46593;SDS011;35342;52.378;4.648;2022-12-29T04:38:18;16.92;;;2.92;;
46593;SDS011;35342;52.378;4.648;2022-12-29T04:40:43;13.05;;;3.15;;
46593;SDS011;35342;52.378;4.648;2022-12-29T04:43:09;33.70;;;6.50;;
46593;SDS011;35342;52.378;4.648;2022-12-29T04:45:35;15.95;;;3.60;;
46593;SDS011;35342;52.378;4.648;2022-12-29T04:48:01;15.20;;;3.28;;
46593;SDS011;35342;52.378;4.648;2022-12-29T04:50:26;10.52;;;2.50;;
46593;SDS011;35342;52.378;4.648;2022-12-29T04:52:52;26.30;;;3.92;;
46593;SDS011;35342;52.378;4.648;2022-12-29T04:55:18;19.20;;;4.82;;
46593;SDS011;35342;52.378;4.648;2022-12-29T04:57:43;14.75;;;3.00;;
46593;SDS011;35342;52.378;4.648;2022-12-29T05:00:09;11.68;;;2.97;;
46593;SDS011;35342;52.378;4.648;2022-12-29T05:02:36;24.17;;;3.50;;
46593;SDS011;35342;52.378;4.648;2022-12-29T05:05:02;12.50;;;3.00;;
46593;SDS011;35342;52.378;4.648;2022-12-29T05:07:28;13.65;;;3.13;;
46593;SDS011;35342;52.378;4.648;2022-12-29T05:09:54;15.00;;;2.80;;
46593;SDS011;35342;52.378;4.648;2022-12-29T05:12:19;13.60;;;2.75;;
46593;SDS011;35342;52.378;4.648;2022-12-29T05:14:45;7.93;;;2.63;;
46593;SDS011;35342;52.378;4.648;2022-12-29T05:17:10;17.08;;;3.22;;
46593;SDS011;35342;52.378;4.648;2022-12-29T05:19:36;13.48;;;2.20;;
46593;SDS011;35342;52.378;4.648;2022-12-29T05:22:03;9.27;;;2.63;;
46593;SDS011;35342;52.378;4.648;2022-12-29T05:24:28;9.40;;;1.80;;
46593;SDS011;35342;52.378;4.648;2022-12-29T05:26:54;21.33;;;2.97;;
46593;SDS011;35342;52.378;4.648;2022-12-29T05:29:20;15.15;;;2.80;;
46593;SDS011;35342;52.378;4.648;2022-12-29T05:31:45;16.50;;;3.35;;
46593;SDS011;35342;52.378;4.648;2022-12-29T05:34:11;15.15;;;2.65;;
46593;SDS011;35342;52.378;4.648;2022-12-29T05:36:37;16.73;;;3.70;;
46593;SDS011;35342;52.378;4.648;2022-12-29T05:39:03;18.05;;;3.15;;
46593;SDS011;35342;52.378;4.648;2022-12-29T05:41:29;19.52;;;3.58;;
46593;SDS011;35342;52.378;4.648;2022-12-29T05:43:54;20.45;;;3.22;;
46593;SDS011;35342;52.378;4.648;2022-12-29T05:46:20;21.27;;;3.85;;
46593;SDS011;35342;52.378;4.648;2022-12-29T05:48:46;33.65;;;3.47;;
46593;SDS011;35342;52.378;4.648;2022-12-29T05:51:11;20.63;;;3.38;;
46593;SDS011;35342;52.378;4.648;2022-12-29T05:53:37;23.85;;;4.32;;
46593;SDS011;35342;52.378;4.648;2022-12-29T05:56:03;19.33;;;3.45;;
46593;SDS011;35342;52.378;4.648;2022-12-29T05:58:28;17.77;;;3.35;;
46593;SDS011;35342;52.378;4.648;2022-12-29T06:00:54;18.02;;;3.45;;
46593;SDS011;35342;52.378;4.648;2022-12-29T06:03:19;19.10;;;3.00;;
46593;SDS011;35342;52.378;4.648;2022-12-29T06:05:45;24.45;;;3.45;;
46593;SDS011;35342;52.378;4.648;2022-12-29T06:08:11;19.02;;;2.55;;
46593;SDS011;35342;52.378;4.648;2022-12-29T06:10:37;21.23;;;3.28;;
46593;SDS011;35342;52.378;4.648;2022-12-29T06:13:02;15.38;;;3.10;;
46593;SDS011;35342;52.378;4.648;2022-12-29T06:15:30;25.58;;;3.53;;
46593;SDS011;35342;52.378;4.648;2022-12-29T06:17:56;16.92;;;3.20;;
46593;SDS011;35342;52.378;4.648;2022-12-29T06:20:22;21.10;;;3.85;;
46593;SDS011;35342;52.378;4.648;2022-12-29T06:22:47;16.27;;;2.80;;
46593;SDS011;35342;52.378;4.648;2022-12-29T06:25:14;18.60;;;3.45;;
46593;SDS011;35342;52.378;4.648;2022-12-29T06:27:39;16.83;;;2.58;;
46593;SDS011;35342;52.378;4.648;2022-12-29T06:30:05;15.45;;;3.78;;
46593;SDS011;35342;52.378;4.648;2022-12-29T06:32:31;18.40;;;4.43;;
46593;SDS011;35342;52.378;4.648;2022-12-29T06:34:57;20.35;;;3.75;;
46593;SDS011;35342;52.378;4.648;2022-12-29T06:37:23;21.35;;;4.32;;
46593;SDS011;35342;52.378;4.648;2022-12-29T06:39:48;11.40;;;2.72;;
46593;SDS011;35342;52.378;4.648;2022-12-29T06:42:14;21.88;;;5.00;;
46593;SDS011;35342;52.378;4.648;2022-12-29T06:44:40;20.65;;;3.85;;
46593;SDS011;35342;52.378;4.648;2022-12-29T06:47:05;24.23;;;4.90;;
46593;SDS011;35342;52.378;4.648;2022-12-29T06:49:31;29.35;;;4.15;;
46593;SDS011;35342;52.378;4.648;2022-12-29T06:51:57;22.65;;;5.28;;
46593;SDS011;35342;52.378;4.648;2022-12-29T06:54:24;26.63;;;4.47;;
46593;SDS011;35342;52.378;4.648;2022-12-29T06:56:50;28.65;;;4.35;;
46593;SDS011;35342;52.378;4.648;2022-12-29T06:59:15;23.58;;;3.97;;
46593;SDS011;35342;52.378;4.648;2022-12-29T07:01:41;19.38;;;3.45;;
46593;SDS011;35342;52.378;4.648;2022-12-29T07:04:06;24.52;;;5.82;;
46593;SDS011;35342;52.378;4.648;2022-12-29T07:06:32;29.92;;;5.43;;
46593;SDS011;35342;52.378;4.648;2022-12-29T07:08:58;20.48;;;3.42;;
46593;SDS011;35342;52.378;4.648;2022-12-29T07:11:23;25.38;;;4.55;;
46593;SDS011;35342;52.378;4.648;2022-12-29T07:13:49;27.88;;;4.25;;
46593;SDS011;35342;52.378;4.648;2022-12-29T07:16:15;19.77;;;3.40;;
46593;SDS011;35342;52.378;4.648;2022-12-29T07:18:41;20.70;;;4.22;;
46593;SDS011;35342;52.378;4.648;2022-12-29T07:21:07;17.63;;;4.05;;
46593;SDS011;35342;52.378;4.648;2022-12-29T07:23:32;21.48;;;4.68;;
46593;SDS011;35342;52.378;4.648;2022-12-29T07:25:59;22.80;;;5.75;;
46593;SDS011;35342;52.378;4.648;2022-12-29T07:28:28;30.27;;;3.80;;
46593;SDS011;35342;52.378;4.648;2022-12-29T07:30:54;30.42;;;5.60;;
46593;SDS011;35342;52.378;4.648;2022-12-29T07:33:20;19.77;;;4.93;;
46593;SDS011;35342;52.378;4.648;2022-12-29T07:35:45;22.15;;;4.50;;
46593;SDS011;35342;52.378;4.648;2022-12-29T07:38:11;22.27;;;4.32;;
46593;SDS011;35342;52.378;4.648;2022-12-29T07:40:37;29.42;;;4.53;;
46593;SDS011;35342;52.378;4.648;2022-12-29T07:43:02;25.05;;;5.75;;
46593;SDS011;35342;52.378;4.648;2022-12-29T07:45:29;39.92;;;6.55;;
46593;SDS011;35342;52.378;4.648;2022-12-29T07:47:54;25.30;;;4.20;;
46593;SDS011;35342;52.378;4.648;2022-12-29T07:50:20;18.35;;;4.00;;
46593;SDS011;35342;52.378;4.648;2022-12-29T07:52:46;29.90;;;5.82;;
46593;SDS011;35342;52.378;4.648;2022-12-29T07:55:12;18.88;;;4.55;;
46593;SDS011;35342;52.378;4.648;2022-12-29T07:57:41;23.10;;;4.00;;
46593;SDS011;35342;52.378;4.648;2022-12-29T08:00:07;25.45;;;4.28;;
46593;SDS011;35342;52.378;4.648;2022-12-29T08:02:34;15.48;;;2.97;;
46593;SDS011;35342;52.378;4.648;2022-12-29T08:05:00;16.55;;;3.40;;
46593;SDS011;35342;52.378;4.648;2022-12-29T08:07:25;20.85;;;3.72;;
46593;SDS011;35342;52.378;4.648;2022-12-29T08:09:51;19.90;;;4.43;;
46593;SDS011;35342;52.378;4.648;2022-12-29T08:12:17;17.98;;;4.88;;
46593;SDS011;35342;52.378;4.648;2022-12-29T08:14:43;30.40;;;4.15;;
46593;SDS011;35342;52.378;4.648;2022-12-29T08:17:08;14.63;;;2.95;;
46593;SDS011;35342;52.378;4.648;2022-12-29T08:19:34;18.05;;;4.03;;
46593;SDS011;35342;52.378;4.648;2022-12-29T08:22:00;18.15;;;3.28;;
46593;SDS011;35342;52.378;4.648;2022-12-29T08:24:26;19.77;;;4.07;;
46593;SDS011;35342;52.378;4.648;2022-12-29T08:26:52;21.00;;;3.72;;
46593;SDS011;35342;52.378;4.648;2022-12-29T08:29:18;13.85;;;2.40;;
46593;SDS011;35342;52.378;4.648;2022-12-29T08:31:44;15.13;;;2.72;;
46593;SDS011;35342;52.378;4.648;2022-12-29T08:34:10;15.20;;;3.05;;
46593;SDS011;35342;52.378;4.648;2022-12-29T08:36:36;23.60;;;3.03;;
46593;SDS011;35342;52.378;4.648;2022-12-29T08:39:01;21.77;;;5.15;;
46593;SDS011;35342;52.378;4.648;2022-12-29T08:41:27;17.58;;;3.53;;
46593;SDS011;35342;52.378;4.648;2022-12-29T08:43:52;14.88;;;3.15;;
46593;SDS011;35342;52.378;4.648;2022-12-29T08:46:18;15.48;;;3.13;;
46593;SDS011;35342;52.378;4.648;2022-12-29T08:48:44;19.60;;;4.55;;
46593;SDS011;35342;52.378;4.648;2022-12-29T08:51:10;15.15;;;3.00;;
46593;SDS011;35342;52.378;4.648;2022-12-29T08:53:35;23.23;;;3.25;;
46593;SDS011;35342;52.378;4.648;2022-12-29T08:56:02;17.85;;;3.38;;
46593;SDS011;35342;52.378;4.648;2022-12-29T08:58:29;18.73;;;4.63;;
46593;SDS011;35342;52.378;4.648;2022-12-29T09:00:57;20.77;;;3.30;;
46593;SDS011;35342;52.378;4.648;2022-12-29T09:03:23;16.42;;;3.58;;
46593;SDS011;35342;52.378;4.648;2022-12-29T09:05:53;16.63;;;3.47;;
46593;SDS011;35342;52.378;4.648;2022-12-29T09:08:20;26.70;;;3.38;;
46593;SDS011;35342;52.378;4.648;2022-12-29T09:10:46;20.55;;;3.65;;
46593;SDS011;35342;52.378;4.648;2022-12-29T09:13:12;21.83;;;4.32;;
46593;SDS011;35342;52.378;4.648;2022-12-29T09:15:39;14.40;;;3.75;;
46593;SDS011;35342;52.378;4.648;2022-12-29T09:18:05;22.02;;;5.00;;
46593;SDS011;35342;52.378;4.648;2022-12-29T09:20:32;23.60;;;3.60;;
46593;SDS011;35342;52.378;4.648;2022-12-29T09:22:58;15.85;;;3.15;;
46593;SDS011;35342;52.378;4.648;2022-12-29T09:25:24;21.85;;;3.90;;
46593;SDS011;35342;52.378;4.648;2022-12-29T09:27:50;22.67;;;5.38;;
46593;SDS011;35342;52.378;4.648;2022-12-29T09:30:18;27.90;;;6.53;;
46593;SDS011;35342;52.378;4.648;2022-12-29T09:32:44;17.35;;;4.00;;
46593;SDS011;35342;52.378;4.648;2022-12-29T09:35:10;18.17;;;4.07;;
46593;SDS011;35342;52.378;4.648;2022-12-29T09:37:36;24.10;;;4.63;;
46593;SDS011;35342;52.378;4.648;2022-12-29T09:40:02;23.98;;;3.90;;
46593;SDS011;35342;52.378;4.648;2022-12-29T09:47:41;27.80;;;5.32;;
46593;SDS011;35342;52.378;4.648;2022-12-29T09:50:41;35.20;;;5.97;;
46593;SDS011;35342;52.378;4.648;2022-12-29T09:53:13;27.23;;;5.55;;
46593;SDS011;35342;52.378;4.648;2022-12-29T09:55:41;26.05;;;5.10;;
46593;SDS011;35342;52.378;4.648;2022-12-29T09:58:15;39.28;;;6.65;;
46593;SDS011;35342;52.378;4.648;2022-12-29T10:03:18;25.25;;;6.03;;
46593;SDS011;35342;52.378;4.648;2022-12-29T10:06:05;27.45;;;5.65;;
46593;SDS011;35342;52.378;4.648;2022-12-29T10:14:51;39.50;;;5.95;;
46593;SDS011;35342;52.378;4.648;2022-12-29T10:17:30;26.30;;;5.25;;
46593;SDS011;35342;52.378;4.648;2022-12-29T10:25:37;31.98;;;6.10;;
46593;SDS011;35342;52.378;4.648;2022-12-29T10:28:20;35.22;;;6.53;;
46593;SDS011;35342;52.378;4.648;2022-12-29T10:31:08;31.48;;;4.80;;
46593;SDS011;35342;52.378;4.648;2022-12-29T10:33:40;26.85;;;4.82;;
46593;SDS011;35342;52.378;4.648;2022-12-29T10:36:16;33.97;;;6.35;;
46593;SDS011;35342;52.378;4.648;2022-12-29T10:41:38;21.85;;;4.65;;
46593;SDS011;35342;52.378;4.648;2022-12-29T10:44:07;27.42;;;6.25;;
46593;SDS011;35342;52.378;4.648;2022-12-29T10:46:35;28.20;;;4.97;;
46593;SDS011;35342;52.378;4.648;2022-12-29T10:49:02;27.08;;;4.43;;
46593;SDS011;35342;52.378;4.648;2022-12-29T10:51:29;24.67;;;4.30;;
46593;SDS011;35342;52.378;4.648;2022-12-29T10:56:54;23.85;;;4.47;;
46593;SDS011;35342;52.378;4.648;2022-12-29T10:59:31;18.60;;;4.13;;
46593;SDS011;35342;52.378;4.648;2022-12-29T11:06:55;19.08;;;3.60;;
46593;SDS011;35342;52.378;4.648;2022-12-29T11:09:24;21.60;;;3.03;;
46593;SDS011;35342;52.378;4.648;2022-12-29T11:11:53;17.27;;;2.42;;
46593;SDS011;35342;52.378;4.648;2022-12-29T11:14:19;12.50;;;2.70;;
46593;SDS011;35342;52.378;4.648;2022-12-29T11:16:57;18.23;;;2.55;;
46593;SDS011;35342;52.378;4.648;2022-12-29T11:19:25;18.80;;;3.72;;
46593;SDS011;35342;52.378;4.648;2022-12-29T11:21:53;10.13;;;2.22;;
46593;SDS011;35342;52.378;4.648;2022-12-29T11:24:23;17.73;;;3.33;;
46593;SDS011;35342;52.378;4.648;2022-12-29T11:26:54;18.05;;;2.97;;
46593;SDS011;35342;52.378;4.648;2022-12-29T11:29:25;14.68;;;3.15;;
46593;SDS011;35342;52.378;4.648;2022-12-29T11:31:56;21.50;;;3.95;;
46593;SDS011;35342;52.378;4.648;2022-12-29T11:34:30;15.82;;;2.83;;
46593;SDS011;35342;52.378;4.648;2022-12-29T11:37:02;28.17;;;4.18;;
46593;SDS011;35342;52.378;4.648;2022-12-29T11:39:47;13.73;;;3.08;;
46593;SDS011;35342;52.378;4.648;2022-12-29T11:45:09;18.15;;;4.18;;
46593;SDS011;35342;52.378;4.648;2022-12-29T11:47:45;21.92;;;4.85;;
46593;SDS011;35342;52.378;4.648;2022-12-29T11:50:31;19.05;;;4.03;;
46593;SDS011;35342;52.378;4.648;2022-12-29T11:52:59;14.00;;;2.17;;
46593;SDS011;35342;52.378;4.648;2022-12-29T11:55:25;13.25;;;3.40;;
46593;SDS011;35342;52.378;4.648;2022-12-29T11:57:51;13.20;;;3.42;;
46593;SDS011;35342;52.378;4.648;2022-12-29T12:00:19;15.13;;;3.92;;
46593;SDS011;35342;52.378;4.648;2022-12-29T12:05:49;16.42;;;3.08;;
46593;SDS011;35342;52.378;4.648;2022-12-29T12:16:57;19.95;;;4.57;;
46593;SDS011;35342;52.378;4.648;2022-12-29T12:21:59;13.32;;;3.03;;
46593;SDS011;35342;52.378;4.648;2022-12-29T12:38:35;9.35;;;2.75;;
46593;SDS011;35342;52.378;4.648;2022-12-29T13:00:26;21.10;;;2.85;;
46593;SDS011;35342;52.378;4.648;2022-12-29T13:03:11;22.25;;;3.35;;
46593;SDS011;35342;52.378;4.648;2022-12-29T13:05:55;18.52;;;3.67;;
46593;SDS011;35342;52.378;4.648;2022-12-29T13:08:57;15.70;;;3.38;;
46593;SDS011;35342;52.378;4.648;2022-12-29T13:27:40;8.13;;;2.50;;
46593;SDS011;35342;52.378;4.648;2022-12-29T13:30:34;11.20;;;2.80;;
46593;SDS011;35342;52.378;4.648;2022-12-29T13:33:21;12.25;;;2.40;;
46593;SDS011;35342;52.378;4.648;2022-12-29T13:36:56;9.18;;;2.10;;
46593;SDS011;35342;52.378;4.648;2022-12-29T13:39:13;13.67;;;3.07;;
46593;SDS011;35342;52.378;4.648;2022-12-29T13:41:45;7.88;;;2.00;;
46593;SDS011;35342;52.378;4.648;2022-12-29T13:44:27;10.90;;;2.58;;
46593;SDS011;35342;52.378;4.648;2022-12-29T13:46:56;5.85;;;1.45;;
46593;SDS011;35342;52.378;4.648;2022-12-29T13:49:25;13.90;;;4.07;;
46593;SDS011;35342;52.378;4.648;2022-12-29T13:52:03;12.20;;;3.55;;
46593;SDS011;35342;52.378;4.648;2022-12-29T13:54:40;14.10;;;2.75;;
46593;SDS011;35342;52.378;4.648;2022-12-29T13:59:59;17.35;;;2.63;;
46593;SDS011;35342;52.378;4.648;2022-12-29T14:07:48;12.80;;;2.67;;
46593;SDS011;35342;52.378;4.648;2022-12-29T14:15:44;14.35;;;3.50;;
46593;SDS011;35342;52.378;4.648;2022-12-29T14:18:19;16.63;;;4.07;;
46593;SDS011;35342;52.378;4.648;2022-12-29T14:20:51;21.25;;;3.92;;
46593;SDS011;35342;52.378;4.648;2022-12-29T14:28:32;17.20;;;3.58;;
46593;SDS011;35342;52.378;4.648;2022-12-29T14:31:02;21.35;;;5.43;;
46593;SDS011;35342;52.378;4.648;2022-12-29T14:36:37;15.70;;;3.40;;
46593;SDS011;35342;52.378;4.648;2022-12-29T14:42:03;19.70;;;4.05;;
46593;SDS011;35342;52.378;4.648;2022-12-29T14:44:29;18.67;;;3.78;;
46593;SDS011;35342;52.378;4.648;2022-12-29T14:47:05;15.95;;;2.35;;
46593;SDS011;35342;52.378;4.648;2022-12-29T14:49:32;19.02;;;3.13;;
46593;SDS011;35342;52.378;4.648;2022-12-29T14:52:15;20.48;;;2.88;;
46593;SDS011;35342;52.378;4.648;2022-12-29T14:54:45;20.80;;;3.88;;
46593;SDS011;35342;52.378;4.648;2022-12-29T14:57:36;18.73;;;4.20;;
46593;SDS011;35342;52.378;4.648;2022-12-29T15:00:14;18.70;;;2.75;;
46593;SDS011;35342;52.378;4.648;2022-12-29T15:03:14;18.63;;;3.70;;
46593;SDS011;35342;52.378;4.648;2022-12-29T15:08:10;16.08;;;3.20;;
46593;SDS011;35342;52.378;4.648;2022-12-29T15:10:39;11.90;;;2.58;;
46593;SDS011;35342;52.378;4.648;2022-12-29T15:13:15;18.48;;;4.32;;
46593;SDS011;35342;52.378;4.648;2022-12-29T15:15:43;14.52;;;3.53;;
46593;SDS011;35342;52.378;4.648;2022-12-29T15:18:13;28.98;;;4.18;;
46593;SDS011;35342;52.378;4.648;2022-12-29T15:20:40;16.23;;;3.47;;
46593;SDS011;35342;52.378;4.648;2022-12-29T15:23:10;10.27;;;3.53;;
46593;SDS011;35342;52.378;4.648;2022-12-29T15:25:54;23.75;;;4.63;;
46593;SDS011;35342;52.378;4.648;2022-12-29T15:28:26;18.65;;;3.42;;
46593;SDS011;35342;52.378;4.648;2022-12-29T15:30:56;16.38;;;4.80;;
46593;SDS011;35342;52.378;4.648;2022-12-29T15:33:27;23.92;;;3.38;;
46593;SDS011;35342;52.378;4.648;2022-12-29T15:35:53;18.98;;;3.38;;
46593;SDS011;35342;52.378;4.648;2022-12-29T15:38:24;17.58;;;4.28;;
46593;SDS011;35342;52.378;4.648;2022-12-29T15:40:53;14.50;;;3.47;;
46593;SDS011;35342;52.378;4.648;2022-12-29T15:43:51;15.77;;;2.97;;
46593;SDS011;35342;52.378;4.648;2022-12-29T15:46:21;18.20;;;3.17;;
46593;SDS011;35342;52.378;4.648;2022-12-29T15:48:47;14.80;;;2.88;;
46593;SDS011;35342;52.378;4.648;2022-12-29T15:51:29;14.63;;;2.50;;
46593;SDS011;35342;52.378;4.648;2022-12-29T15:53:57;14.95;;;2.80;;
46593;SDS011;35342;52.378;4.648;2022-12-29T15:56:23;19.45;;;4.57;;
46593;SDS011;35342;52.378;4.648;2022-12-29T15:58:50;22.48;;;4.30;;
46593;SDS011;35342;52.378;4.648;2022-12-29T16:01:32;18.60;;;3.15;;
46593;SDS011;35342;52.378;4.648;2022-12-29T16:03:59;17.63;;;3.97;;
46593;SDS011;35342;52.378;4.648;2022-12-29T16:06:38;20.67;;;4.40;;
46593;SDS011;35342;52.378;4.648;2022-12-29T16:11:40;17.83;;;3.78;;
46593;SDS011;35342;52.378;4.648;2022-12-29T16:14:21;21.20;;;3.83;;
46593;SDS011;35342;52.378;4.648;2022-12-29T16:17:18;14.52;;;3.58;;
46593;SDS011;35342;52.378;4.648;2022-12-29T16:20:04;24.02;;;4.22;;
46593;SDS011;35342;52.378;4.648;2022-12-29T16:22:46;17.50;;;3.13;;
46593;SDS011;35342;52.378;4.648;2022-12-29T16:25:22;16.60;;;4.25;;
46593;SDS011;35342;52.378;4.648;2022-12-29T16:27:56;15.20;;;3.08;;
46593;SDS011;35342;52.378;4.648;2022-12-29T16:30:24;17.65;;;4.18;;
46593;SDS011;35342;52.378;4.648;2022-12-29T16:32:52;19.02;;;3.47;;
46593;SDS011;35342;52.378;4.648;2022-12-29T16:35:20;20.10;;;5.90;;
46593;SDS011;35342;52.378;4.648;2022-12-29T16:43:35;16.15;;;2.60;;
46593;SDS011;35342;52.378;4.648;2022-12-29T16:48:55;12.88;;;3.55;;
46593;SDS011;35342;52.378;4.648;2022-12-29T16:51:23;13.70;;;3.05;;
46593;SDS011;35342;52.378;4.648;2022-12-29T16:54:00;19.08;;;3.35;;
46593;SDS011;35342;52.378;4.648;2022-12-29T16:56:27;28.42;;;3.70;;
46593;SDS011;35342;52.378;4.648;2022-12-29T16:59:05;27.55;;;4.60;;
46593;SDS011;35342;52.378;4.648;2022-12-29T17:01:50;19.33;;;4.07;;
46593;SDS011;35342;52.378;4.648;2022-12-29T17:04:16;16.13;;;4.85;;
46593;SDS011;35342;52.378;4.648;2022-12-29T17:06:41;25.48;;;5.18;;
46593;SDS011;35342;52.378;4.648;2022-12-29T17:09:17;23.95;;;4.05;;
46593;SDS011;35342;52.378;4.648;2022-12-29T17:11:43;13.65;;;3.13;;
46593;SDS011;35342;52.378;4.648;2022-12-29T17:20:00;16.20;;;3.08;;
46593;SDS011;35342;52.378;4.648;2022-12-29T17:22:30;13.02;;;3.30;;
46593;SDS011;35342;52.378;4.648;2022-12-29T17:24:56;18.83;;;3.88;;
46593;SDS011;35342;52.378;4.648;2022-12-29T17:29:57;16.40;;;4.40;;
46593;SDS011;35342;52.378;4.648;2022-12-29T17:32:25;28.42;;;3.75;;
46593;SDS011;35342;52.378;4.648;2022-12-29T17:34:51;22.48;;;4.57;;
46593;SDS011;35342;52.378;4.648;2022-12-29T17:39:48;14.30;;;3.25;;
46593;SDS011;35342;52.378;4.648;2022-12-29T17:42:13;22.67;;;4.13;;
46593;SDS011;35342;52.378;4.648;2022-12-29T17:44:39;18.48;;;3.35;;
46593;SDS011;35342;52.378;4.648;2022-12-29T17:47:07;16.10;;;4.13;;
46593;SDS011;35342;52.378;4.648;2022-12-29T17:49:35;20.48;;;3.47;;
46593;SDS011;35342;52.378;4.648;2022-12-29T17:52:00;15.00;;;3.72;;